Time;durP1;ratioP1;P1;durP2;ratioP2;P2;SDS_P1;SDS_P2;PMS_P1;PMS_P2;Temp;Humidity;BMP_temperature;BMP_pressure;BME280_temperature;BME280_humidity;BME280_pressure;Samples;Min_cycle;Max_cycle;Signal;HPM_P1;HPM_P2
2022/06/18 00:01:56;;;;;;;8.10;2.20;;;;;;;17.70;61.78;100855.13;5074510;28;20521;-73
2022/06/18 00:04:26;;;;;;;4.50;2.05;;;;;;;17.72;61.35;100845.06;5074447;28;20037;-71
2022/06/18 00:06:57;;;;;;;4.07;2.25;;;;;;;17.77;61.63;100847.41;5074117;28;20071;-72
2022/06/18 00:09:29;;;;;;;3.88;1.90;;;;;;;17.74;61.54;100854.72;5074681;28;20044;-71
2022/06/18 00:14:47;;;;;;;4.13;2.20;;;;;;;17.95;61.16;100852.16;5074558;28;20044;-71
2022/06/18 00:17:18;;;;;;;5.65;2.35;;;;;;;17.94;61.27;100860.34;5074110;28;20452;-72
2022/06/18 00:19:49;;;;;;;5.07;2.17;;;;;;;17.65;63.14;100863.53;5074499;28;20405;-71
2022/06/18 00:22:21;;;;;;;3.85;2.08;;;;;;;17.71;62.49;100859.53;5073933;28;20086;-71
2022/06/18 00:24:50;;;;;;;5.47;2.30;;;;;;;17.69;63.00;100858.75;5074015;28;20098;-71
2022/06/18 00:27:20;;;;;;;5.50;2.65;;;;;;;17.69;63.41;100866.84;5073894;28;20040;-73
2022/06/18 00:29:51;;;;;;;4.43;2.13;;;;;;;17.60;63.93;100860.34;5074362;28;20049;-73
2022/06/18 00:32:20;;;;;;;5.03;2.40;;;;;;;17.47;65.03;100856.94;5073856;28;20075;-73
2022/06/18 00:34:48;;;;;;;3.17;2.20;;;;;;;17.31;65.87;100861.81;5073773;28;20044;-73
2022/06/18 00:37:19;;;;;;;5.35;2.40;;;;;;;17.25;65.89;100859.59;5074078;28;20036;-73
2022/06/18 00:39:49;;;;;;;4.00;2.33;;;;;;;17.37;65.39;100864.91;5074209;28;20047;-72
2022/06/18 00:42:26;;;;;;;3.72;2.25;;;;;;;17.50;64.86;100867.47;5073705;28;20123;-69
2022/06/18 00:45:00;;;;;;;4.18;2.40;;;;;;;17.36;65.83;100865.00;5073718;28;20060;-69
2022/06/18 00:47:35;;;;;;;3.53;2.10;;;;;;;17.36;65.81;100865.84;5073688;28;20066;-69
2022/06/18 00:50:13;;;;;;;4.35;2.40;;;;;;;17.20;67.20;100872.59;5073636;28;20079;-69
2022/06/18 00:52:45;;;;;;;5.13;2.20;;;;;;;17.14;67.75;100866.69;5073528;28;20139;-70
2022/06/18 00:55:28;;;;;;;5.85;2.13;;;;;;;17.24;66.59;100871.34;5073942;28;20048;-69
2022/06/18 00:58:01;;;;;;;4.88;2.10;;;;;;;17.21;67.11;100872.47;5073637;28;20513;-74
2022/06/18 01:00:35;;;;;;;6.35;2.80;;;;;;;17.29;67.37;100871.88;5073102;28;20063;-73
2022/06/18 01:03:06;;;;;;;5.05;2.50;;;;;;;17.17;68.74;100865.56;5073519;28;20072;-73
2022/06/18 01:05:38;;;;;;;4.70;2.45;;;;;;;17.03;70.18;100863.97;5073804;28;20401;-72
2022/06/18 01:08:15;;;;;;;4.35;2.50;;;;;;;17.15;69.43;100867.53;5073425;28;20497;-72
2022/06/18 01:10:47;;;;;;;5.50;2.53;;;;;;;17.03;70.39;100865.78;5073604;28;20036;-72
2022/06/18 01:13:21;;;;;;;4.90;2.50;;;;;;;16.96;70.05;100865.41;5072932;28;20067;-72
2022/06/18 01:15:49;;;;;;;5.72;2.33;;;;;;;17.08;69.60;100860.88;5073585;28;20428;-73
2022/06/18 01:18:19;;;;;;;4.32;2.53;;;;;;;17.04;70.85;100864.81;5072827;28;20071;-73
2022/06/18 01:20:50;;;;;;;4.13;2.50;;;;;;;16.93;72.10;100865.66;5073464;28;20037;-73
2022/06/18 01:23:26;;;;;;;4.53;2.50;;;;;;;16.98;71.60;100866.13;5073192;28;20139;-73
2022/06/18 01:25:56;;;;;;;4.72;2.58;;;;;;;16.80;72.63;100856.81;5073440;28;20040;-73
2022/06/18 01:28:25;;;;;;;5.18;2.35;;;;;;;16.88;72.36;100860.59;5073475;28;20041;-73
2022/06/18 01:30:54;;;;;;;4.82;2.55;;;;;;;16.82;72.63;100857.53;5073292;28;20052;-74
2022/06/18 01:33:22;;;;;;;4.70;2.20;;;;;;;16.96;70.84;100851.94;5072627;28;20159;-74
2022/06/18 01:35:53;;;;;;;4.65;2.30;;;;;;;16.95;70.43;100850.22;5073269;28;20040;-74
2022/06/18 01:38:24;;;;;;;4.55;2.53;;;;;;;16.91;70.58;100854.13;5071968;28;20139;-74
2022/06/18 01:41:49;;;;;;;5.40;2.33;;;;;;;16.94;70.41;100853.88;5073065;28;20124;-74
2022/06/18 01:43:55;;;;;;;4.95;2.47;;;;;;;17.00;69.46;100848.03;5073040;28;20041;-74
2022/06/18 01:46:25;;;;;;;4.13;2.47;;;;;;;16.94;70.09;100847.66;5073012;28;20047;-74
2022/06/18 01:48:56;;;;;;;4.85;2.33;;;;;;;16.71;71.38;100847.59;5072101;28;20052;-74
2022/06/18 01:51:30;;;;;;;4.20;2.33;;;;;;;16.57;72.39;100851.28;5072906;28;20044;-70
2022/06/18 01:54:05;;;;;;;5.15;2.60;;;;;;;16.69;72.46;100854.03;5073192;28;20064;-71
2022/06/18 01:56:38;;;;;;;4.10;2.60;;;;;;;16.48;73.94;100854.66;5073141;28;20068;-72
2022/06/18 01:59:11;;;;;;;4.63;2.60;;;;;;;16.41;76.60;100866.03;5072902;28;20043;-72
2022/06/18 02:01:43;;;;;;;5.97;2.53;;;;;;;16.32;77.18;100854.13;5072872;28;20050;-71
2022/06/18 02:04:13;;;;;;;3.65;2.40;;;;;;;16.46;75.66;100845.00;5072873;28;20127;-72
2022/06/18 02:06:49;;;;;;;5.88;2.70;;;;;;;16.69;73.95;100851.34;5073148;28;20044;-71
2022/06/18 02:09:31;;;;;;;5.40;2.83;;;;;;;16.55;75.14;100858.63;5072565;28;20040;-74
2022/06/18 02:12:08;;;;;;;6.20;2.50;;;;;;;16.54;75.33;100846.13;5074140;28;20044;-73
2022/06/18 02:14:43;;;;;;;6.47;2.85;;;;;;;16.44;75.30;100845.09;5076812;28;20132;-73
2022/06/18 02:17:17;;;;;;;4.05;2.30;;;;;;;16.43;75.17;100839.84;5076320;28;20477;-73
2022/06/18 02:19:52;;;;;;;5.82;2.53;;;;;;;16.30;75.84;100847.97;5076831;28;20507;-73
2022/06/18 02:22:24;;;;;;;5.30;2.92;;;;;;;16.43;74.73;100840.69;5076580;28;20075;-73
2022/06/18 02:24:52;;;;;;;5.20;2.50;;;;;;;16.35;75.35;100840.41;5076602;28;20075;-73
2022/06/18 02:27:21;;;;;;;4.38;2.28;;;;;;;16.44;74.84;100839.72;5076352;28;20060;-74
2022/06/18 02:29:50;;;;;;;4.20;2.72;;;;;;;16.44;75.48;100842.41;5076197;28;20068;-73
2022/06/18 02:32:25;;;;;;;3.90;2.53;;;;;;;16.39;76.20;100846.41;5076161;28;20037;-73
2022/06/18 02:34:53;;;;;;;6.60;2.72;;;;;;;16.44;74.73;100845.09;5079319;28;20064;-72
2022/06/18 02:37:24;;;;;;;5.15;2.60;;;;;;;16.17;76.88;100844.47;5080766;28;20180;-71
2022/06/18 02:39:59;;;;;;;5.78;2.67;;;;;;;16.07;78.21;100840.75;5077325;28;20465;-71
2022/06/18 02:42:33;;;;;;;4.90;2.53;;;;;;;16.15;77.56;100843.72;5076269;28;20390;-72
2022/06/18 02:45:04;;;;;;;4.43;2.60;;;;;;;16.22;77.38;100845.00;5076171;28;20121;-73
2022/06/18 02:47:32;;;;;;;4.05;2.35;;;;;;;16.10;77.46;100843.19;5076317;28;20097;-72
2022/06/18 02:50:04;;;;;;;4.68;2.47;;;;;;;16.06;77.48;100844.41;5076151;28;20051;-73
2022/06/18 02:52:36;;;;;;;6.25;2.67;;;;;;;16.11;77.61;100850.28;5076279;28;20477;-73
2022/06/18 02:55:10;;;;;;;4.38;2.67;;;;;;;16.20;77.00;100852.31;5075786;28;20040;-74
2022/06/18 02:57:40;;;;;;;6.07;2.38;;;;;;;16.29;73.99;100854.31;5076451;28;20102;-71
2022/06/18 03:00:13;;;;;;;5.28;2.50;;;;;;;16.41;74.29;100852.56;5075646;28;20040;-75
2022/06/18 03:02:41;;;;;;;4.03;2.80;;;;;;;16.41;73.60;100857.97;5075755;28;20496;-74
2022/06/18 03:05:19;;;;;;;5.68;2.80;;;;;;;16.42;74.19;100857.84;5075611;28;20044;-75
2022/06/18 03:07:48;;;;;;;5.35;2.70;;;;;;;16.43;74.17;100854.16;5075938;28;20121;-72
2022/06/18 03:13:05;;;;;;;8.10;2.92;;;;;;;16.49;72.67;100855.53;5075423;28;20074;-71
2022/06/18 03:15:33;;;;;;;5.50;2.75;;;;;;;16.60;71.96;100859.16;5075688;28;20397;-71
2022/06/18 03:18:03;;;;;;;4.05;2.30;;;;;;;16.76;71.29;100852.59;5075521;28;20048;-71
2022/06/18 03:20:41;;;;;;;4.20;2.65;;;;;;;16.69;72.02;100856.72;5075708;28;20037;-71
2022/06/18 03:23:15;;;;;;;4.63;2.60;;;;;;;16.60;73.46;100860.97;5074460;28;20067;-71
2022/06/18 03:25:47;;;;;;;6.00;2.60;;;;;;;16.79;71.78;100861.34;5075379;28;20131;-71
2022/06/18 03:28:18;;;;;;;5.28;2.67;;;;;;;16.92;71.72;100858.53;5075142;28;20055;-71
2022/06/18 03:30:46;;;;;;;6.07;2.83;;;;;;;16.98;71.47;100855.34;5075132;28;20044;-73
2022/06/18 03:33:15;;;;;;;4.43;2.55;;;;;;;17.22;70.20;100858.00;5073794;28;20135;-73
2022/06/18 03:35:46;;;;;;;3.72;2.47;;;;;;;17.85;66.92;100866.50;5075173;28;20097;-72
2022/06/18 03:38:18;;;;;;;4.97;2.45;;;;;;;18.56;63.00;100854.31;5074961;28;20051;-72
2022/06/18 03:40:51;;;;;;;5.03;2.50;;;;;;;19.23;60.11;100855.84;5075159;28;20477;-71
2022/06/18 03:43:22;;;;;;;4.85;2.50;;;;;;;19.65;58.18;100859.34;5074921;28;20044;-71
2022/06/18 03:45:54;;;;;;;4.30;2.30;;;;;;;20.08;56.32;100853.66;5075180;28;20489;-71
2022/06/18 03:48:27;;;;;;;4.85;2.65;;;;;;;19.27;58.54;100852.72;5073557;28;20060;-71
2022/06/18 03:50:55;;;;;;;5.32;2.60;;;;;;;19.52;58.42;100853.28;5075014;28;20046;-71
2022/06/18 03:53:26;;;;;;;6.60;2.70;;;;;;;20.26;55.45;100851.09;5074446;28;20041;-72
2022/06/18 03:55:54;;;;;;;4.95;2.25;;;;;;;19.45;57.51;100856.53;5074454;28;20464;-72
2022/06/18 03:58:27;;;;;;;8.40;2.83;;;;;;;18.88;59.90;100852.47;5074490;28;20131;-72
2022/06/18 04:00:56;;;;;;;6.40;2.40;;;;;;;18.53;61.55;100847.34;5074633;28;20047;-71
2022/06/18 04:03:24;;;;;;;4.22;2.60;;;;;;;19.93;57.22;100847.78;5074443;28;20047;-72
2022/06/18 04:05:53;;;;;;;6.53;2.83;;;;;;;19.85;56.62;100850.31;5074755;28;20051;-71
2022/06/18 04:08:21;;;;;;;5.78;2.72;;;;;;;18.91;60.40;100850.47;5074006;28;20539;-72
2022/06/18 04:10:50;;;;;;;6.05;2.30;;;;;;;18.50;61.88;100847.56;5074321;28;20044;-72
2022/06/18 04:13:18;;;;;;;5.03;2.40;;;;;;;19.06;61.10;100855.44;5074276;28;20093;-74
2022/06/18 04:15:47;;;;;;;4.20;2.40;;;;;;;21.15;53.26;100850.00;5073337;28;20056;-73
2022/06/18 04:18:16;;;;;;;6.28;2.67;;;;;;;22.11;50.35;100847.97;5062556;28;20041;-74
2022/06/18 04:20:44;;;;;;;4.78;2.40;;;;;;;22.54;48.45;100851.81;5054208;28;20379;-74
2022/06/18 04:23:15;;;;;;;5.63;2.35;;;;;;;23.09;47.12;100843.47;5062705;28;20040;-76
2022/06/18 04:25:44;;;;;;;3.90;2.38;;;;;;;23.74;45.82;100854.81;5074318;28;20123;-75
2022/06/18 04:28:14;;;;;;;4.15;2.30;;;;;;;23.13;46.67;100855.72;5073903;28;20041;-75
2022/06/18 04:30:43;;;;;;;5.03;2.30;;;;;;;21.95;49.26;100862.16;5074333;28;20537;-78
2022/06/18 04:33:12;;;;;;;5.63;2.35;;;;;;;21.21;52.22;100866.69;5073782;28;20041;-76
2022/06/18 04:35:51;;;;;;;4.85;2.10;;;;;;;20.50;54.69;100873.28;5073701;28;20052;-75
2022/06/18 04:38:20;;;;;;;7.18;2.20;;;;;;;20.36;55.95;100868.22;5073836;28;20477;-78
2022/06/18 04:40:49;;;;;;;4.75;2.30;;;;;;;20.06;56.24;100869.16;5074025;28;20477;-74
2022/06/18 04:43:26;;;;;;;5.97;2.60;;;;;;;20.15;56.61;100867.50;5056544;28;20087;-74
2022/06/18 04:45:56;;;;;;;4.97;2.72;;;;;;;20.15;56.54;100870.19;5054152;28;20376;-74
2022/06/18 04:48:25;;;;;;;4.72;2.65;;;;;;;20.00;57.37;100869.75;5053752;28;20111;-73
2022/06/18 04:50:54;;;;;;;6.40;2.47;;;;;;;20.62;56.38;100879.44;5053910;28;20037;-74
2022/06/18 04:53:22;;;;;;;4.60;2.58;;;;;;;20.74;55.55;100877.44;5053527;28;20045;-74
2022/06/18 04:55:50;;;;;;;5.05;2.70;;;;;;;21.25;53.36;100885.25;5052488;28;20061;-72
2022/06/18 04:58:19;;;;;;;4.65;2.80;;;;;;;22.52;51.08;100878.28;5053539;28;20033;-73
2022/06/18 05:00:47;;;;;;;5.55;2.70;;;;;;;23.98;46.11;100886.72;5053613;28;20176;-71
2022/06/18 05:03:17;;;;;;;5.75;2.70;;;;;;;24.87;43.91;100877.09;5053424;28;20047;-71
2022/06/18 05:05:47;;;;;;;7.07;2.60;;;;;;;25.67;41.25;100884.38;5053748;28;20095;-76
2022/06/18 05:08:16;;;;;;;6.45;2.50;;;;;;;25.73;41.12;100882.84;5055524;28;20047;-77
2022/06/18 05:10:44;;;;;;;5.05;2.50;;;;;;;24.29;44.28;100897.91;5056509;28;20087;-76
2022/06/18 05:13:13;;;;;;;5.88;2.53;;;;;;;24.71;44.13;100894.31;5053441;28;20049;-78
2022/06/18 05:15:42;;;;;;;6.13;2.78;;;;;;;24.67;43.96;100888.31;5053363;28;20045;-76
2022/06/18 05:18:13;;;;;;;5.00;2.60;;;;;;;23.79;45.96;100890.56;5053179;28;20041;-75
2022/06/18 05:20:42;;;;;;;5.10;2.53;;;;;;;25.77;41.25;100894.25;5053161;28;20051;-70
2022/06/18 05:23:14;;;;;;;7.70;2.80;;;;;;;24.98;42.93;100896.69;5053288;28;20466;-72
2022/06/18 05:25:42;;;;;;;6.10;3.00;;;;;;;23.96;45.86;100897.81;5053482;28;20075;-73
2022/06/18 05:28:11;;;;;;;6.35;2.88;;;;;;;23.69;45.75;100901.56;5068343;28;20049;-72
2022/06/18 05:30:40;;;;;;;4.35;2.53;;;;;;;24.59;44.47;100898.34;5073520;28;20120;-74
2022/06/18 05:33:08;;;;;;;5.28;2.55;;;;;;;26.91;39.46;100897.25;5077066;28;20043;-70
2022/06/18 05:35:39;;;;;;;3.80;2.40;;;;;;;26.39;40.02;100899.84;5072658;28;20555;-75
2022/06/18 05:38:08;;;;;;;4.53;2.60;;;;;;;27.52;37.40;100897.28;5073289;28;20429;-80
2022/06/18 05:40:38;;;;;;;4.75;2.22;;;;;;;28.11;36.80;100902.81;5073487;28;20051;-76
2022/06/18 05:43:06;;;;;;;6.38;2.53;;;;;;;27.91;36.27;100908.03;5073179;28;20037;-84
2022/06/18 05:45:35;;;;;;;5.22;2.50;;;;;;;28.37;35.80;100908.63;5072727;28;20072;-78
2022/06/18 05:48:11;;;;;;;4.88;2.30;;;;;;;28.41;35.03;100914.59;5076352;28;20481;-86
2022/06/18 05:50:39;;;;;;;6.28;2.50;;;;;;;28.85;33.89;100908.09;5076326;28;20044;-86
2022/06/18 05:53:07;;;;;;;2.90;1.92;;;;;;;27.51;35.62;100915.63;5076468;28;20116;-86
2022/06/18 05:55:35;;;;;;;4.45;2.40;;;;;;;27.27;35.42;100911.22;5076081;28;20131;-85
2022/06/18 05:58:05;;;;;;;5.05;2.47;;;;;;;27.28;36.97;100906.56;5076900;28;20040;-80
2022/06/18 06:00:33;;;;;;;5.32;2.20;;;;;;;28.84;34.04;100915.50;5076591;28;20050;-79
2022/06/18 06:03:02;;;;;;;3.33;2.28;;;;;;;28.69;33.56;100912.81;5077019;28;20051;-78
2022/06/18 06:05:30;;;;;;;4.30;2.40;;;;;;;28.06;34.51;100916.22;5076728;28;20123;-78
2022/06/18 06:07:59;;;;;;;4.15;2.00;;;;;;;28.59;34.19;100911.44;5075908;28;20106;-78
2022/06/18 06:13:18;;;;;;;7.07;3.20;;;;;;;29.75;32.90;100908.31;5077222;28;20450;-81
2022/06/18 06:15:48;;;;;;;4.55;2.40;;;;;;;30.23;31.27;100910.28;5079982;28;20040;-74
2022/06/18 06:18:18;;;;;;;4.28;2.33;;;;;;;30.36;31.19;100904.81;5085827;28;20048;-78
2022/06/18 06:20:49;;;;;;;5.25;2.50;;;;;;;30.72;30.34;100905.41;5083502;28;20044;-74
2022/06/18 06:23:18;;;;;;;4.93;2.28;;;;;;;30.28;31.50;100910.50;5076932;28;20500;-79
2022/06/18 06:25:47;;;;;;;4.20;2.40;;;;;;;30.54;31.31;100902.34;5075319;28;20056;-76
2022/06/18 06:28:19;;;;;;;4.75;2.13;;;;;;;31.07;30.26;100907.97;5077126;28;20405;-76
2022/06/18 06:30:47;;;;;;;5.03;1.93;;;;;;;31.04;29.30;100913.91;5076564;28;20064;-73
2022/06/18 06:33:16;;;;;;;7.65;2.63;;;;;;;31.28;28.84;100907.84;5076083;28;20052;-76
2022/06/18 06:35:44;;;;;;;4.70;2.10;;;;;;;30.93;29.08;100909.03;5076260;28;20043;-77
2022/06/18 06:38:13;;;;;;;4.10;2.20;;;;;;;31.24;29.04;100912.06;5076131;28;20036;-77
2022/06/18 06:40:43;;;;;;;3.88;2.05;;;;;;;30.83;29.29;100914.09;5075529;28;20045;-73
2022/06/18 06:43:15;;;;;;;3.80;2.08;;;;;;;31.25;29.78;100911.00;5076060;28;20110;-73
2022/06/18 06:45:45;;;;;;;3.65;2.10;;;;;;;31.63;28.61;100910.34;5076340;28;20055;-74
2022/06/18 06:48:13;;;;;;;5.00;2.10;;;;;;;32.02;27.28;100906.66;5075890;28;20450;-76
2022/06/18 06:50:42;;;;;;;4.82;2.28;;;;;;;32.40;26.30;100912.28;5075874;28;20043;-76
2022/06/18 06:53:12;;;;;;;2.80;1.83;;;;;;;32.31;26.96;100916.34;5075580;28;20044;-77
2022/06/18 06:58:26;;;;;;;4.22;2.13;;;;;;;31.86;26.08;100902.47;5074229;28;20044;-78
2022/06/18 07:00:58;;;;;;;4.40;2.00;;;;;;;30.67;27.63;100899.66;5075841;28;20045;-78
2022/06/18 07:03:29;;;;;;;5.25;2.22;;;;;;;29.52;29.64;100902.22;5075575;28;20043;-78
2022/06/18 07:05:59;;;;;;;5.82;2.10;;;;;;;28.96;31.06;100908.50;5074139;28;20049;-78
2022/06/18 07:08:30;;;;;;;3.47;1.67;;;;;;;29.17;30.11;100899.38;5075469;28;20044;-78
2022/06/18 07:10:59;;;;;;;6.45;2.42;;;;;;;28.88;30.75;100894.84;5075872;28;20045;-78
2022/06/18 07:13:30;;;;;;;5.68;2.10;;;;;;;28.76;30.37;100891.78;5074167;28;20079;-78
2022/06/18 07:16:00;;;;;;;4.30;2.10;;;;;;;28.39;32.19;100900.25;5075255;28;20493;-78
2022/06/18 07:18:31;;;;;;;3.50;1.65;;;;;;;28.24;31.95;100897.47;5075083;28;20497;-78
2022/06/18 07:21:00;;;;;;;4.80;1.88;;;;;;;28.09;31.76;100894.78;5074429;28;20053;-78
2022/06/18 07:23:29;;;;;;;5.70;2.20;;;;;;;28.15;31.17;100891.25;5074932;28;20516;-78
2022/06/18 07:25:57;;;;;;;4.60;2.30;;;;;;;27.81;31.74;100880.88;5075185;28;20396;-78
2022/06/18 07:28:26;;;;;;;4.22;2.35;;;;;;;27.67;32.94;100884.47;5073947;28;20048;-77
2022/06/18 07:30:55;;;;;;;4.22;2.20;;;;;;;27.48;32.84;100880.34;5075141;28;20502;-77
2022/06/18 07:33:27;;;;;;;4.47;2.20;;;;;;;27.44;32.69;100883.66;5075091;28;20417;-79
2022/06/18 07:35:55;;;;;;;5.03;2.15;;;;;;;27.48;33.46;100887.72;5074282;28;20441;-78
2022/06/18 07:38:24;;;;;;;7.13;2.20;;;;;;;27.26;32.71;100893.06;5074858;28;20440;-77
2022/06/18 07:40:54;;;;;;;5.47;2.13;;;;;;;27.32;34.15;100891.50;5075197;28;20496;-77
2022/06/18 07:43:31;;;;;;;6.03;2.45;;;;;;;26.67;33.41;100892.84;5074746;28;20478;-88
2022/06/18 07:46:01;;;;;;;4.20;2.22;;;;;;;26.48;34.09;100887.84;5075108;28;20055;-78
2022/06/18 07:48:31;;;;;;;4.55;2.25;;;;;;;26.52;34.02;100883.69;5074555;28;20462;-77
2022/06/18 07:50:59;;;;;;;4.22;2.30;;;;;;;26.57;34.46;100885.91;5074823;28;20056;-78
2022/06/18 07:53:28;;;;;;;4.47;2.22;;;;;;;26.57;34.43;100885.91;5074656;28;20401;-78
2022/06/18 07:55:56;;;;;;;8.52;2.67;;;;;;;26.95;33.57;100879.47;5074814;28;20044;-78
2022/06/18 07:58:26;;;;;;;5.80;2.38;;;;;;;27.24;33.70;100880.63;5074641;28;20051;-78
2022/06/18 08:00:55;;;;;;;5.43;2.50;;;;;;;27.25;33.36;100879.56;5074923;28;20037;-78
2022/06/18 08:03:24;;;;;;;4.68;2.40;;;;;;;27.28;32.75;100880.03;5074596;28;20127;-78
2022/06/18 08:05:55;;;;;;;6.25;2.45;;;;;;;27.09;32.86;100875.94;5074496;28;20119;-77
2022/06/18 08:08:24;;;;;;;4.30;2.60;;;;;;;27.21;33.48;100875.47;5074172;28;20505;-78
2022/06/18 08:11:12;;;;;;;6.32;2.70;;;;;;;26.89;34.16;100871.13;5073913;28;20044;-77
2022/06/18 08:13:41;;;;;;;5.32;2.55;;;;;;;26.91;34.82;100869.03;5073952;28;20094;-78
2022/06/18 08:16:11;;;;;;;6.05;2.95;;;;;;;26.33;35.35;100868.56;5074054;28;20127;-77
2022/06/18 08:18:39;;;;;;;5.80;2.88;;;;;;;26.05;36.05;100870.94;5073942;28;20503;-77
2022/06/18 08:21:11;;;;;;;6.68;2.67;;;;;;;25.97;36.27;100873.72;5074395;28;20036;-77
2022/06/18 08:23:40;;;;;;;4.78;2.92;;;;;;;25.80;36.52;100874.81;5074168;28;20109;-77
2022/06/18 08:26:09;;;;;;;6.15;2.97;;;;;;;25.94;35.74;100874.91;5074364;28;20048;-77
2022/06/18 08:28:39;;;;;;;6.03;3.03;;;;;;;25.84;36.08;100868.78;5073912;28;20470;-77
2022/06/18 08:31:09;;;;;;;4.95;2.90;;;;;;;26.07;35.19;100868.88;5074777;28;20144;-77
2022/06/18 08:33:38;;;;;;;4.40;2.70;;;;;;;25.93;35.28;100867.72;5073809;28;20044;-77
2022/06/18 08:36:11;;;;;;;5.05;2.88;;;;;;;26.33;35.26;100856.78;5074091;28;20037;-77
2022/06/18 08:38:44;;;;;;;5.35;3.00;;;;;;;26.27;34.95;100863.81;5073570;28;20453;-76
2022/06/18 08:41:23;;;;;;;6.22;3.00;;;;;;;26.57;34.70;100851.19;5073972;28;20040;-77
2022/06/18 08:44:15;;;;;;;4.93;3.00;;;;;;;26.58;35.18;100854.78;5073804;28;20120;-77
2022/06/18 08:46:54;;;;;;;4.22;3.05;;;;;;;26.58;34.91;100855.63;5072454;28;20505;-77
2022/06/18 08:49:37;;;;;;;4.05;2.80;;;;;;;25.47;35.68;100850.25;5073703;28;20040;-78
2022/06/18 08:52:19;;;;;;;4.63;2.55;;;;;;;25.99;34.96;100859.88;5073914;28;20044;-78
2022/06/18 08:54:57;;;;;;;5.80;2.63;;;;;;;25.77;34.60;100847.81;5073790;28;20037;-78
2022/06/18 08:57:35;;;;;;;6.57;3.00;;;;;;;26.07;34.29;100847.03;5073662;28;20048;-78
2022/06/18 09:00:11;;;;;;;6.18;3.05;;;;;;;25.92;35.30;100833.25;5072860;28;20052;-77
2022/06/18 09:02:46;;;;;;;4.25;2.78;;;;;;;26.15;34.86;100838.78;5073164;28;20041;-78
2022/06/18 09:05:42;;;;;;;3.95;2.75;;;;;;;26.40;34.80;100844.13;5073700;28;20036;-78
2022/06/18 09:08:43;;;;;;;4.05;2.45;;;;;;;26.05;35.14;100843.59;5073513;28;20048;-78
2022/06/18 09:11:38;;;;;;;5.75;2.70;;;;;;;25.43;35.75;100838.00;5052535;28;20538;-78
2022/06/18 09:14:14;;;;;;;5.15;2.83;;;;;;;25.56;36.52;100832.81;5073327;28;20401;-78
2022/06/18 09:16:48;;;;;;;7.18;2.53;;;;;;;25.96;35.51;100839.19;5073265;28;20041;-78
2022/06/18 09:19:20;;;;;;;4.25;2.25;;;;;;;26.27;34.94;100830.16;5073387;28;20064;-79
2022/06/18 09:21:52;;;;;;;4.53;2.13;;;;;;;26.11;33.35;100834.69;5072461;28;20059;-79
2022/06/18 09:24:26;;;;;;;4.40;1.90;;;;;;;25.67;33.95;100832.47;5073568;28;20045;-78
2022/06/18 09:27:03;;;;;;;4.03;2.10;;;;;;;25.84;34.50;100830.53;5073228;28;20067;-78
2022/06/18 09:29:38;;;;;;;5.40;2.13;;;;;;;25.62;33.72;100826.69;5073020;28;20083;-78
2022/06/18 09:32:15;;;;;;;5.43;2.00;;;;;;;25.84;33.89;100829.69;5073382;28;20068;-78
2022/06/18 09:34:48;;;;;;;3.90;2.15;;;;;;;25.77;34.73;100826.84;5072004;28;20053;-78
2022/06/18 09:37:17;;;;;;;;;;;;;;;26.03;34.91;100823.78;5073892;28;20492;-76
2022/06/18 09:39:54;;;;;;;5.82;2.40;;;;;;;26.13;35.24;100818.94;5072939;28;20278;-78
2022/06/18 09:42:26;;;;;;;3.00;2.10;;;;;;;26.24;35.45;100813.06;5072980;28;20466;-79
2022/06/18 09:45:07;;;;;;;3.50;1.70;;;;;;;26.12;34.38;100811.78;5073234;28;20052;-78
2022/06/18 09:47:40;;;;;;;3.28;1.83;;;;;;;26.02;34.20;100815.78;5072885;28;20047;-78
2022/06/18 09:50:16;;;;;;;;;;;;;;;26.24;34.75;100812.22;5073542;28;20123;-78
2022/06/18 09:52:49;;;;;;;3.47;2.10;;;;;;;26.45;33.83;100817.94;5071841;28;20022;-78
2022/06/18 09:55:23;;;;;;;5.47;1.90;;;;;;;26.59;32.41;100807.22;5073184;28;20040;-79
2022/06/18 09:57:55;;;;;;;3.85;1.70;;;;;;;26.14;33.08;100804.25;5072909;28;20881;-78
2022/06/18 10:00:28;;;;;;;2.53;1.60;;;;;;;26.30;32.64;100803.31;5073136;28;20116;-78
2022/06/18 10:03:02;;;;;;;3.60;1.75;;;;;;;26.38;32.58;100799.69;5072892;28;20120;-78
2022/06/18 10:08:22;;;;;;;2.90;1.85;;;;;;;26.24;33.51;100796.66;5072811;28;20382;-78
2022/06/18 10:11:07;;;;;;;4.53;1.80;;;;;;;26.10;34.31;100797.44;5072611;28;20500;-78
2022/06/18 10:13:42;;;;;;;3.13;1.75;;;;;;;26.00;32.88;100785.03;5071420;28;20044;-79
2022/06/18 10:16:16;;;;;;;3.35;1.80;;;;;;;25.93;33.84;100787.63;5072873;28;20036;-78
2022/06/18 10:18:54;;;;;;;3.92;2.10;;;;;;;26.00;34.73;100780.44;5071184;28;20048;-78
2022/06/18 10:21:31;;;;;;;4.15;1.98;;;;;;;26.27;32.74;100770.00;5072983;28;20051;-78
2022/06/18 10:24:09;;;;;;;4.10;1.90;;;;;;;26.17;33.42;100776.56;5071782;28;20478;-78
2022/06/18 10:26:45;;;;;;;4.10;2.17;;;;;;;26.07;33.75;100780.56;5072646;28;20085;-79
2022/06/18 10:29:21;;;;;;;4.50;1.98;;;;;;;26.07;33.82;100775.09;5072439;28;20090;-78
2022/06/18 10:32:04;;;;;;;3.00;1.92;;;;;;;25.99;33.76;100767.78;5072603;28;20037;-78
2022/06/18 10:34:59;;;;;;;4.20;2.00;;;;;;;26.09;33.18;100762.94;5076311;28;20044;-78
2022/06/18 10:37:41;;;;;;;3.88;1.75;;;;;;;26.31;33.24;100754.94;5076556;28;20047;-78
2022/06/18 10:40:34;;;;;;;3.55;1.98;;;;;;;26.39;32.89;100758.50;5076604;28;20473;-78
2022/06/18 10:43:36;;;;;;;3.85;2.00;;;;;;;26.62;32.43;100763.94;5076274;28;20051;-78
2022/06/18 10:46:10;;;;;;;2.90;2.00;;;;;;;26.25;32.48;100754.66;5075077;28;20138;-78
2022/06/18 10:48:45;;;;;;;3.90;1.90;;;;;;;26.22;32.26;100765.91;5074188;28;20059;-79
2022/06/18 10:51:17;;;;;;;3.85;2.10;;;;;;;26.04;32.26;100770.81;5074872;28;20048;-78
2022/06/18 10:53:50;;;;;;;6.38;2.00;;;;;;;26.13;32.47;100761.53;5075816;28;20044;-79
2022/06/18 10:56:24;;;;;;;4.38;1.92;;;;;;;26.03;32.52;100763.66;5076228;28;20124;-79
2022/06/18 10:58:56;;;;;;;3.42;1.85;;;;;;;26.20;31.66;100758.94;5076141;28;20434;-78
2022/06/18 11:01:30;;;;;;;3.53;1.80;;;;;;;26.21;32.64;100758.75;5076004;28;20453;-78
2022/06/18 11:04:02;;;;;;;3.08;1.90;;;;;;;26.53;33.11;100759.56;5075799;28;20435;-78
2022/06/18 11:06:32;;;;;;;3.97;2.20;;;;;;;26.43;32.56;100765.28;5075731;28;20032;-78
2022/06/18 11:09:03;;;;;;;3.20;1.98;;;;;;;26.25;32.21;100749.16;5075446;28;20489;-78
2022/06/18 11:11:35;;;;;;;4.25;2.00;;;;;;;26.41;32.83;100752.81;5075839;28;20041;-78
2022/06/18 11:14:16;;;;;;;4.32;2.08;;;;;;;26.87;31.49;100747.31;5075916;28;20060;-78
2022/06/18 11:16:54;;;;;;;3.05;2.00;;;;;;;26.95;31.95;100741.75;5075586;28;20044;-78
2022/06/18 11:19:29;;;;;;;3.40;2.13;;;;;;;26.87;32.64;100744.56;5074125;28;20062;-78
2022/06/18 11:22:10;;;;;;;8.30;2.03;;;;;;;26.68;33.18;100741.31;5075507;28;20055;-78
2022/06/18 11:24:39;;;;;;;3.63;2.10;;;;;;;26.66;32.69;100743.38;5075150;28;20066;-80
2022/06/18 11:27:13;;;;;;;4.55;2.10;;;;;;;26.75;31.90;100728.59;5075423;28;20128;-78
2022/06/18 11:29:50;;;;;;;4.50;2.42;;;;;;;26.80;32.59;100728.88;5075248;28;20040;-78
2022/06/18 11:32:22;;;;;;;3.85;2.10;;;;;;;26.66;32.97;100731.59;5074348;28;20119;-77
2022/06/18 11:34:59;;;;;;;5.03;2.08;;;;;;;26.69;33.14;100721.13;5075198;28;20040;-78
2022/06/18 11:37:30;;;;;;;4.60;2.20;;;;;;;26.91;33.08;100718.50;5075266;28;20119;-78
2022/06/18 11:40:03;;;;;;;5.22;2.30;;;;;;;26.69;33.12;100720.28;5075303;28;20044;-78
2022/06/18 11:42:37;;;;;;;3.70;2.03;;;;;;;26.68;32.92;100716.69;5074459;28;20448;-78
2022/06/18 11:45:26;;;;;;;4.63;2.20;;;;;;;26.64;33.48;100709.91;5074567;28;20040;-78
2022/06/18 11:48:00;;;;;;;4.53;1.98;;;;;;;26.81;32.28;100707.81;5074914;28;20044;-78
2022/06/18 11:50:32;;;;;;;3.80;2.00;;;;;;;26.93;32.72;100705.50;5074957;28;20048;-78
2022/06/18 11:53:07;;;;;;;3.45;2.05;;;;;;;26.89;33.36;100698.69;5074775;28;20123;-77
2022/06/18 11:55:38;;;;;;;3.70;2.10;;;;;;;26.91;32.36;100696.59;5073700;28;20059;-78
2022/06/18 11:58:13;;;;;;;3.38;2.03;;;;;;;26.98;32.14;100692.09;5074886;28;20397;-78
2022/06/18 12:00:51;;;;;;;5.03;2.20;;;;;;;27.12;32.21;100688.56;5074293;28;20049;-80
2022/06/18 12:03:30;;;;;;;3.47;1.90;;;;;;;27.10;32.13;100690.59;5073592;28;20106;-78
2022/06/18 12:06:03;;;;;;;2.80;2.00;;;;;;;27.26;31.89;100681.34;5074518;28;20047;-78